This is the latest recevied weather packets stored in our database for station/object K1LVA. If no packets are shown the sender has not sent any weather packets the latest 10 day(s).
| Time | Temp. | Humidity | Pressure | Rain* | Wind** | Luminosity | Snow |
|---|---|---|---|---|---|---|---|
| 1777843295 | 23.33° C | 37% | 1016.8 hPa | 0 mm | - | 420 W/m² | - |
| 1777842993 | 22.78° C | 38% | 1016.7 hPa | 0 mm | - | 448 W/m² | - |
| 1777842687 | 22.22° C | 39% | 1016.7 hPa | 0 mm | - | 460 W/m² | - |
| 1777842384 | 22.22° C | 37% | 1016.8 hPa | 0 mm | - | 459 W/m² | - |
| 1777842081 | 22.78° C | 38% | 1017 hPa | 0 mm | - | 459 W/m² | - |
| 1777841777 | 22.78° C | 35% | 1016.8 hPa | 0 mm | - | 491 W/m² | - |
| 1777841473 | 22.78° C | 35% | 1016.7 hPa | 0 mm | - | 501 W/m² | - |
| 1777841170 | 22.22° C | 37% | 1016.9 hPa | 0 mm | - | 502 W/m² | - |
| 1777840868 | 22.22° C | 37% | 1016.9 hPa | 0 mm | - | 516 W/m² | - |
| 1777840565 | 22.22° C | 36% | 1016.8 hPa | 0 mm | - | 544 W/m² | - |
| 1777840262 | 22.78° C | 36% | 1017.1 hPa | 0 mm | - | 555 W/m² | - |
| 1777839959 | 22.78° C | 39% | 1017 hPa | 0 mm | - | 560 W/m² | - |
| 1777839656 | 22.78° C | 38% | 1017 hPa | 0 mm | - | 575 W/m² | - |
| 1777839355 | 22.78° C | 40% | 1017 hPa | 0 mm | - | 585 W/m² | - |
| 1777839051 | 22.22° C | 38% | 1017.2 hPa | 0 mm | - | 596 W/m² | - |
| 1777838747 | 22.22° C | 39% | 1017.4 hPa | 0 mm | - | 610 W/m² | - |
| 1777838444 | 22.22° C | 37% | 1017.3 hPa | 0 mm | - | 620 W/m² | - |
| 1777838141 | 22.22° C | 35% | 1017.5 hPa | 0 mm | - | 633 W/m² | - |
| 1777837838 | 22.22° C | 37% | 1017.5 hPa | 0 mm | - | 638 W/m² | - |
| 1777837535 | 22.22° C | 40% | 1017.6 hPa | 0 mm | - | 657 W/m² | - |
| 1777837236 | 22.22° C | 38% | 1017.7 hPa | 0 mm | - | 666 W/m² | - |
| 1777836933 | 21.67° C | 40% | 1017.6 hPa | 0 mm | - | 676 W/m² | - |
| 1777836628 | 21.67° C | 38% | 1017.8 hPa | 0 mm | - | 683 W/m² | - |
| 1777836324 | 21.67° C | 37% | 1018 hPa | 0 mm | - | 688 W/m² | - |
| 1777836020 | 22.22° C | 37% | 1018.2 hPa | 0 mm | - | 698 W/m² | - |
* Rain latest hour (hover to see other rain measurements)
** Current wind speed in m/s (hover to see current wind gust speed)